createdAt,value
2023-05-01T00:02:09.742Z,13.32
2023-05-01T00:05:12.474Z,13.35
2023-05-01T00:08:16.033Z,13.34
2023-05-01T00:11:18.667Z,13.28
2023-05-01T00:14:21.105Z,13.14
2023-05-01T00:17:24.021Z,13.06
2023-05-01T00:20:30.105Z,13.18
2023-05-01T00:23:32.777Z,13.14
2023-05-01T00:26:35.094Z,13.18
2023-05-01T00:29:38.041Z,13.05
2023-05-01T00:32:40.836Z,13.01
2023-05-01T00:35:46.818Z,13.06
2023-05-01T00:38:49.196Z,12.88
2023-05-01T00:41:51.949Z,12.89
2023-05-01T00:44:54.646Z,12.87
2023-05-01T00:47:57.309Z,13.02
2023-05-01T00:51:01.249Z,13.02
2023-05-01T00:54:03.935Z,12.94
2023-05-01T00:57:08.327Z,13.00
2023-05-01T01:00:12.455Z,12.93
2023-05-01T01:03:14.951Z,12.85
2023-05-01T01:06:27.836Z,12.79
2023-05-01T01:09:55.373Z,12.88
2023-05-01T01:13:10.368Z,12.88
2023-05-01T01:16:20.624Z,12.86
2023-05-01T01:19:52.252Z,12.87
2023-05-01T01:23:11.834Z,12.87
2023-05-01T01:26:52.317Z,12.86
2023-05-01T01:30:25.906Z,12.81
2023-05-01T01:33:48.298Z,12.74
2023-05-01T01:37:13.290Z,12.75
2023-05-01T01:40:19.048Z,12.65
2023-05-01T01:43:22.847Z,12.71
2023-05-01T01:46:26.880Z,12.61
2023-05-01T01:49:31.484Z,12.59
2023-05-01T01:52:37.253Z,12.43
2023-05-01T01:55:41.519Z,12.41
2023-05-01T01:58:46.278Z,12.37
2023-05-01T02:01:50.715Z,12.36
2023-05-01T02:04:57.123Z,12.41
2023-05-01T02:08:00.634Z,12.27
2023-05-01T02:11:05.130Z,12.18
2023-05-01T02:14:09.287Z,12.21
2023-05-01T02:17:13.658Z,12.09
2023-05-01T02:20:16.618Z,12.00
2023-05-01T02:23:19.311Z,12.02
2023-05-01T02:26:26.610Z,11.96
2023-05-01T02:29:29.454Z,11.95
2023-05-01T02:32:32.124Z,11.99
2023-05-01T02:35:41.510Z,12.00
2023-05-01T02:38:44.371Z,11.88
2023-05-01T02:41:48.822Z,11.93
2023-05-01T02:44:58.300Z,11.84
2023-05-01T02:48:04.082Z,11.93
2023-05-01T02:51:08.002Z,11.98
2023-05-01T02:54:10.762Z,11.92
2023-05-01T02:57:13.708Z,11.97
2023-05-01T03:00:16.770Z,11.82
2023-05-01T03:03:19.667Z,11.94
2023-05-01T03:06:22.182Z,12.14
2023-05-01T03:09:25.803Z,12.13
2023-05-01T03:12:28.092Z,12.20
2023-05-01T03:15:30.789Z,12.04
2023-05-01T03:18:33.264Z,12.05
2023-05-01T03:21:37.147Z,12.01
2023-05-01T03:24:39.445Z,11.77
2023-05-01T03:27:42.506Z,11.80
2023-05-01T03:30:45.156Z,11.62
2023-05-01T03:33:48.076Z,11.64
2023-05-01T03:36:51.421Z,11.41
2023-05-01T03:39:54.474Z,11.52
2023-05-01T03:42:59.164Z,11.39
2023-05-01T03:46:01.942Z,11.43
2023-05-01T03:49:05.218Z,11.33
2023-05-01T03:52:08.300Z,11.30
2023-05-01T03:55:11.149Z,11.37
2023-05-01T03:58:14.014Z,11.28
2023-05-01T04:01:16.349Z,11.20
2023-05-01T04:04:19.314Z,11.11
2023-05-01T04:07:21.970Z,10.98
2023-05-01T04:10:25.266Z,10.89
2023-05-01T04:13:28.118Z,10.89
2023-05-01T04:16:31.779Z,10.84
2023-05-01T04:19:34.861Z,10.90
2023-05-01T04:22:37.685Z,10.70
2023-05-01T04:25:40.178Z,10.82
2023-05-01T04:28:43.294Z,10.69
2023-05-01T04:31:46.587Z,10.89
2023-05-01T04:34:49.434Z,10.69
2023-05-01T04:37:52.238Z,10.84
2023-05-01T04:40:54.937Z,10.69
2023-05-01T04:43:57.308Z,10.69
2023-05-01T04:47:02.973Z,10.66
2023-05-01T04:50:06.690Z,10.64
2023-05-01T04:53:09.703Z,10.82
2023-05-01T04:56:12.245Z,10.85
2023-05-01T04:59:15.155Z,10.94
2023-05-01T05:02:17.578Z,10.88
2023-05-01T05:05:20.280Z,10.89
2023-05-01T05:08:23.170Z,11.13
2023-05-01T05:11:26.597Z,10.99
2023-05-01T05:14:31.007Z,11.13
2023-05-01T05:17:35.819Z,11.19
2023-05-01T05:20:39.989Z,11.25
2023-05-01T05:23:42.619Z,11.26
2023-05-01T05:26:44.953Z,11.15
2023-05-01T05:29:47.585Z,11.35
2023-05-01T05:32:50.113Z,11.45
2023-05-01T05:35:53.087Z,11.45
2023-05-01T05:38:55.764Z,11.54
2023-05-01T05:41:58.988Z,11.74
2023-05-01T05:45:01.753Z,11.85
2023-05-01T05:48:04.975Z,11.89
2023-05-01T05:51:07.410Z,11.84
2023-05-01T05:54:10.602Z,11.89
2023-05-01T05:57:13.583Z,12.03
2023-05-01T06:00:18.606Z,12.58
2023-05-01T06:03:23.041Z,13.42
2023-05-01T06:06:26.519Z,13.88
2023-05-01T06:09:29.516Z,14.36
2023-05-01T06:12:33.200Z,14.42
2023-05-01T06:15:38.292Z,14.90
2023-05-01T06:18:42.138Z,15.04
2023-05-01T06:21:46.758Z,15.22
2023-05-01T06:24:49.591Z,15.53
2023-05-01T06:27:52.376Z,15.40
2023-05-01T06:30:54.944Z,15.77
2023-05-01T06:33:57.792Z,15.69
2023-05-01T06:37:01.236Z,15.90
2023-05-01T06:40:05.871Z,15.75
2023-05-01T06:43:08.370Z,15.82
2023-05-01T06:46:11.184Z,16.19
2023-05-01T06:49:13.616Z,16.54
2023-05-01T06:52:16.391Z,16.33
2023-05-01T06:55:18.842Z,16.53
2023-05-01T06:58:24.065Z,16.65
2023-05-01T07:01:27.974Z,16.57
2023-05-01T07:04:32.326Z,16.58
2023-05-01T07:07:35.086Z,17.04
2023-05-01T07:10:39.290Z,17.01
2023-05-01T07:13:43.833Z,17.12
2023-05-01T07:16:46.743Z,17.41
2023-05-01T07:19:50.204Z,17.44
2023-05-01T07:22:52.842Z,17.47
2023-05-01T07:25:55.709Z,17.66
2023-05-01T07:28:58.302Z,17.71
2023-05-01T07:32:01.497Z,17.14
2023-05-01T07:35:05.104Z,16.62
2023-05-01T07:38:07.988Z,16.92
2023-05-01T07:41:10.690Z,16.80
2023-05-01T07:44:13.943Z,16.77
2023-05-01T07:47:16.556Z,16.98
2023-05-01T07:50:18.861Z,17.20
2023-05-01T07:53:22.838Z,17.04
2023-05-01T07:56:25.161Z,17.53
2023-05-01T07:59:28.374Z,17.59
2023-05-01T08:02:30.828Z,17.64
2023-05-01T08:05:33.695Z,17.50
2023-05-01T08:08:36.027Z,17.44
2023-05-01T08:11:38.638Z,16.85
2023-05-01T08:14:41.050Z,17.50
2023-05-01T08:17:43.740Z,17.70
2023-05-01T08:20:48.090Z,17.39
2023-05-01T08:23:51.157Z,17.64
2023-05-01T08:26:53.566Z,18.02
2023-05-01T08:29:56.584Z,17.41
2023-05-01T08:32:59.180Z,17.64
2023-05-01T08:36:02.056Z,18.00
2023-05-01T08:39:05.212Z,18.06
2023-05-01T08:42:08.381Z,18.09
2023-05-01T08:45:11.912Z,18.22
2023-05-01T08:48:18.607Z,18.43
2023-05-01T08:51:23.039Z,18.32
2023-05-01T08:54:28.451Z,18.01
2023-05-01T08:57:32.301Z,18.42
2023-05-01T09:00:37.189Z,18.71
2023-05-01T09:03:39.597Z,18.25
2023-05-01T09:06:45.035Z,18.51
2023-05-01T09:09:47.584Z,18.44
2023-05-01T09:12:56.241Z,18.50
2023-05-01T09:16:00.487Z,18.87
2023-05-01T09:19:03.556Z,18.94
2023-05-01T09:22:05.936Z,19.15
2023-05-01T09:25:10.961Z,19.27
2023-05-01T09:28:13.389Z,19.34
2023-05-01T09:31:23.466Z,19.33
2023-05-01T09:34:25.887Z,19.30
2023-05-01T09:37:30.384Z,19.33
2023-05-01T09:40:32.904Z,19.66
2023-05-01T09:43:35.699Z,19.36
2023-05-01T09:46:42.368Z,19.28
2023-05-01T09:49:48.373Z,19.81
2023-05-01T09:52:52.687Z,20.13
2023-05-01T09:56:04.503Z,19.95
2023-05-01T09:59:18.115Z,20.27
2023-05-01T10:02:30.925Z,20.15
2023-05-01T10:05:43.315Z,19.57
2023-05-01T10:08:50.703Z,20.12
2023-05-01T10:11:57.644Z,20.10
2023-05-01T10:15:05.523Z,20.30
2023-05-01T10:18:14.754Z,20.34
2023-05-01T10:21:17.354Z,20.34
2023-05-01T10:24:20.518Z,20.30
2023-05-01T10:27:24.621Z,20.06
2023-05-01T10:30:27.662Z,20.84
2023-05-01T10:33:30.152Z,21.24
2023-05-01T10:36:39.345Z,21.22
2023-05-01T10:39:41.665Z,21.19
2023-05-01T10:43:27.837Z,21.07
2023-05-01T10:46:30.589Z,21.26
2023-05-01T10:50:12.272Z,21.34
2023-05-01T10:53:15.627Z,21.70
2023-05-01T10:56:25.450Z,21.31
2023-05-01T10:59:58.997Z,21.35
2023-05-01T11:03:23.498Z,21.41
2023-05-01T11:06:26.346Z,21.27
2023-05-01T11:09:49.239Z,21.18
2023-05-01T11:12:52.871Z,21.61
2023-05-01T11:15:55.511Z,21.88
2023-05-01T11:18:57.837Z,21.91
2023-05-01T11:22:01.057Z,21.71
2023-05-01T11:25:05.038Z,21.68
2023-05-01T11:28:09.612Z,22.02
2023-05-01T11:31:18.441Z,21.76
2023-05-01T11:34:21.291Z,21.94
2023-05-01T11:37:41.032Z,22.37
2023-05-01T11:40:43.856Z,22.34
2023-05-01T11:43:54.126Z,21.96
2023-05-01T11:47:01.258Z,21.99
2023-05-01T11:50:03.804Z,22.42
2023-05-01T11:53:17.290Z,22.81
2023-05-01T11:56:27.253Z,22.69
2023-05-01T11:59:30.731Z,22.36
2023-05-01T12:02:33.465Z,22.53
2023-05-01T12:05:38.377Z,22.48
2023-05-01T12:08:47.484Z,22.85
2023-05-01T12:11:54.060Z,22.67
2023-05-01T12:14:56.660Z,22.75
2023-05-01T12:17:59.502Z,22.53
2023-05-01T12:21:02.442Z,22.95
2023-05-01T12:24:16.948Z,22.88
2023-05-01T12:27:20.031Z,22.89
2023-05-01T12:30:27.191Z,22.61
2023-05-01T12:33:30.135Z,22.48
2023-05-01T12:36:35.831Z,22.45
2023-05-01T12:39:44.666Z,22.49
2023-05-01T12:42:56.196Z,22.59
2023-05-01T12:46:02.036Z,22.95
2023-05-01T12:49:05.077Z,23.13
2023-05-01T12:52:11.266Z,23.47
2023-05-01T12:55:19.292Z,23.34
2023-05-01T12:58:37.794Z,22.88
2023-05-01T13:01:41.151Z,23.03
2023-05-01T13:04:44.798Z,22.50
2023-05-01T13:07:51.906Z,22.19
2023-05-01T13:10:57.160Z,22.77
2023-05-01T13:14:07.967Z,23.40
2023-05-01T13:17:11.774Z,23.19
2023-05-01T13:20:15.623Z,23.50
2023-05-01T13:23:18.056Z,23.34
2023-05-01T13:26:36.154Z,22.97
2023-05-01T13:29:39.750Z,23.10
2023-05-01T13:32:42.530Z,22.91
2023-05-01T13:35:44.910Z,23.16
2023-05-01T13:38:53.908Z,22.82
2023-05-01T13:41:56.383Z,22.66
2023-05-01T13:44:59.115Z,23.01
2023-05-01T13:48:03.043Z,22.92
2023-05-01T13:51:08.630Z,22.97
2023-05-01T13:54:11.500Z,22.81
2023-05-01T13:57:16.009Z,22.60
2023-05-01T14:00:18.894Z,22.85
2023-05-01T14:03:22.538Z,23.03
2023-05-01T14:06:25.145Z,23.07
2023-05-01T14:09:28.268Z,22.97
2023-05-01T14:12:32.312Z,23.00
2023-05-01T14:15:35.110Z,22.98
2023-05-01T14:18:45.202Z,23.10
2023-05-01T14:21:48.011Z,23.33
2023-05-01T14:24:51.197Z,23.03
2023-05-01T14:27:55.319Z,22.96
2023-05-01T14:30:57.948Z,23.07
2023-05-01T14:34:03.943Z,22.75
2023-05-01T14:37:06.411Z,22.50
2023-05-01T14:40:13.122Z,22.55
2023-05-01T14:43:22.099Z,22.71
2023-05-01T14:46:33.486Z,22.59
2023-05-01T14:49:36.035Z,22.61
2023-05-01T14:52:39.465Z,22.32
2023-05-01T14:55:42.232Z,22.08
2023-05-01T14:58:44.882Z,22.22
2023-05-01T15:01:47.257Z,22.41
2023-05-01T15:04:49.852Z,22.61
2023-05-01T15:07:57.064Z,22.54
2023-05-01T15:11:04.023Z,22.57
2023-05-01T15:14:06.591Z,22.34
2023-05-01T15:17:10.436Z,22.60
2023-05-01T15:20:13.715Z,22.40
2023-05-01T15:23:16.722Z,21.79
2023-05-01T15:26:19.219Z,21.57
2023-05-01T15:29:21.888Z,21.66
2023-05-01T15:32:24.556Z,21.61
2023-05-01T15:35:27.290Z,21.51
2023-05-01T15:38:30.205Z,21.70
2023-05-01T15:41:32.983Z,21.69
2023-05-01T15:44:35.542Z,21.65
2023-05-01T15:47:38.438Z,21.76
2023-05-01T15:50:41.035Z,21.72
2023-05-01T15:53:44.098Z,21.79
2023-05-01T15:56:46.434Z,21.70
2023-05-01T15:59:53.907Z,21.88
2023-05-01T16:02:56.632Z,21.82
2023-05-01T16:05:59.776Z,21.77
2023-05-01T16:09:03.001Z,21.55
2023-05-01T16:12:07.480Z,21.49
2023-05-01T16:15:10.672Z,21.22
2023-05-01T16:18:19.688Z,21.20
2023-05-01T16:21:23.663Z,21.09
2023-05-01T16:24:26.481Z,21.07
2023-05-01T16:27:29.135Z,21.07
2023-05-01T16:30:31.790Z,20.82
2023-05-01T16:33:34.143Z,20.86
2023-05-01T16:36:42.421Z,20.82
2023-05-01T16:39:44.863Z,20.74
2023-05-01T16:42:54.846Z,20.66
2023-05-01T16:45:58.326Z,20.54
2023-05-01T16:49:01.196Z,20.51
2023-05-01T16:52:05.975Z,20.39
2023-05-01T16:55:10.046Z,20.47
2023-05-01T16:58:12.428Z,20.34
2023-05-01T17:01:15.550Z,20.38
2023-05-01T17:04:18.086Z,20.29
2023-05-01T17:07:23.195Z,20.29
2023-05-01T17:10:25.532Z,20.18
2023-05-01T17:13:28.236Z,20.14
2023-05-01T17:16:32.420Z,20.02
2023-05-01T17:19:35.472Z,20.06
2023-05-01T17:22:37.903Z,19.86
2023-05-01T17:25:40.576Z,19.88
2023-05-01T17:28:46.211Z,19.85
2023-05-01T17:31:48.967Z,19.69
2023-05-01T17:34:51.598Z,19.79
2023-05-01T17:37:54.253Z,19.75
2023-05-01T17:40:56.584Z,19.58
2023-05-01T17:43:59.287Z,19.68
2023-05-01T17:47:01.688Z,19.60
2023-05-01T17:50:05.044Z,19.53
2023-05-01T17:53:07.382Z,19.48
2023-05-01T17:56:10.060Z,19.42
2023-05-01T17:59:12.829Z,19.40
2023-05-01T18:02:15.690Z,19.34
2023-05-01T18:05:18.496Z,19.28
2023-05-01T18:08:20.865Z,19.19
2023-05-01T18:11:23.646Z,19.06
2023-05-01T18:14:25.949Z,19.09
2023-05-01T18:17:28.635Z,19.04
2023-05-01T18:20:31.151Z,19.03
2023-05-01T18:23:35.700Z,18.96
2023-05-01T18:26:38.021Z,18.96
2023-05-01T18:29:40.707Z,18.89
2023-05-01T18:32:48.184Z,18.87
2023-05-01T18:35:51.106Z,18.68
2023-05-01T18:38:53.912Z,18.76
2023-05-01T18:41:56.655Z,18.62
2023-05-01T18:44:58.980Z,18.57
2023-05-01T18:48:01.787Z,18.62
2023-05-01T18:51:08.924Z,18.42
2023-05-01T18:54:12.348Z,18.43
2023-05-01T18:57:14.763Z,18.51
2023-05-01T19:00:17.633Z,18.35
2023-05-01T19:03:20.102Z,18.42
2023-05-01T19:06:22.910Z,18.38
2023-05-01T19:09:25.619Z,18.36
2023-05-01T19:12:28.730Z,18.29
2023-05-01T19:15:31.192Z,18.29
2023-05-01T19:18:34.024Z,18.23
2023-05-01T19:21:36.647Z,18.20
2023-05-01T19:24:40.028Z,18.05
2023-05-01T19:27:42.590Z,18.08
2023-05-01T19:30:45.347Z,18.04
2023-05-01T19:33:48.260Z,18.02
2023-05-01T19:36:56.465Z,17.95
2023-05-01T19:39:59.251Z,17.89
2023-05-01T19:43:02.160Z,17.84
2023-05-01T19:46:05.252Z,17.80
2023-05-01T19:49:08.492Z,17.76
2023-05-01T19:52:10.862Z,17.69
2023-05-01T19:55:14.876Z,17.67
2023-05-01T19:58:17.618Z,17.55
2023-05-01T20:01:20.570Z,17.57
2023-05-01T20:04:24.195Z,17.44
2023-05-01T20:07:27.902Z,17.52
2023-05-01T20:10:31.239Z,17.44
2023-05-01T20:13:34.015Z,17.35
2023-05-01T20:16:36.827Z,17.39
2023-05-01T20:19:39.801Z,17.40
2023-05-01T20:22:42.881Z,17.28
2023-05-01T20:25:48.477Z,17.24
2023-05-01T20:28:52.269Z,17.33
2023-05-01T20:31:54.989Z,17.29
2023-05-01T20:34:57.939Z,17.28
2023-05-01T20:38:01.415Z,17.24
2023-05-01T20:41:04.110Z,17.19
2023-05-01T20:44:07.069Z,17.19
2023-05-01T20:47:09.950Z,17.03
2023-05-01T20:50:12.456Z,17.05
2023-05-01T20:53:15.315Z,16.99
2023-05-01T20:56:17.741Z,16.84
2023-05-01T20:59:20.540Z,16.79
2023-05-01T21:02:22.928Z,16.86
2023-05-01T21:05:25.685Z,16.81
2023-05-01T21:08:28.694Z,16.82
2023-05-01T21:11:31.554Z,16.89
2023-05-01T21:14:33.921Z,16.86
2023-05-01T21:17:38.328Z,16.73
2023-05-01T21:20:41.421Z,16.78
2023-05-01T21:23:51.032Z,16.73
2023-05-01T21:26:56.724Z,16.63
2023-05-01T21:30:01.841Z,16.57
2023-05-01T21:33:08.581Z,16.51
2023-05-01T21:36:12.767Z,16.45
2023-05-01T21:39:15.868Z,16.44
2023-05-01T21:42:18.631Z,16.39
2023-05-01T21:45:21.099Z,16.37
2023-05-01T21:48:23.806Z,16.37
2023-05-01T21:51:28.532Z,16.32
2023-05-01T21:54:31.867Z,16.31
2023-05-01T21:57:39.246Z,16.28
2023-05-01T22:00:42.276Z,16.21
2023-05-01T22:03:46.911Z,16.05
2023-05-01T22:06:50.131Z,16.01
2023-05-01T22:09:52.975Z,15.98
2023-05-01T22:12:55.608Z,15.84
2023-05-01T22:15:58.706Z,15.73
2023-05-01T22:19:01.184Z,15.72
2023-05-01T22:22:03.856Z,15.80
2023-05-01T22:25:07.162Z,15.64
2023-05-01T22:28:09.754Z,15.58
2023-05-01T22:31:12.081Z,15.31
2023-05-01T22:34:14.818Z,15.38
2023-05-01T22:37:18.200Z,15.34
2023-05-01T22:40:20.996Z,15.31
2023-05-01T22:43:24.005Z,15.24
2023-05-01T22:46:26.852Z,15.31
2023-05-01T22:49:29.238Z,15.16
2023-05-01T22:52:32.133Z,15.09
2023-05-01T22:55:34.517Z,15.14
2023-05-01T22:58:37.153Z,15.08
2023-05-01T23:01:39.463Z,15.01
2023-05-01T23:04:43.046Z,15.03
2023-05-01T23:07:45.690Z,14.98
2023-05-01T23:10:48.339Z,14.97
2023-05-01T23:13:50.712Z,14.94
2023-05-01T23:16:53.466Z,14.87
2023-05-01T23:19:58.397Z,14.84
2023-05-01T23:23:05.284Z,14.79
2023-05-01T23:26:07.691Z,14.68
2023-05-01T23:29:12.516Z,14.65
2023-05-01T23:32:28.716Z,14.63
2023-05-01T23:35:31.503Z,14.50
2023-05-01T23:38:33.878Z,14.32
2023-05-01T23:41:36.724Z,14.18
2023-05-01T23:44:39.270Z,14.29
2023-05-01T23:47:41.935Z,14.25
2023-05-01T23:50:44.317Z,14.33
2023-05-01T23:53:47.049Z,14.31
2023-05-01T23:56:49.369Z,14.25
2023-05-01T23:59:52.611Z,14.37
